createdAt,value
2022-12-18T00:00:57.347Z,76.31
2022-12-18T00:02:00.327Z,76.67
2022-12-18T00:03:02.173Z,75.92
2022-12-18T00:04:09.298Z,76.45
2022-12-18T00:05:11.297Z,76.05
2022-12-18T00:06:13.144Z,76.28
2022-12-18T00:07:14.971Z,76.19
2022-12-18T00:08:17.498Z,76.67
2022-12-18T00:09:19.453Z,76.34
2022-12-18T00:10:21.259Z,76.57
2022-12-18T00:11:24.182Z,75.84
2022-12-18T00:12:25.956Z,76.48
2022-12-18T00:13:28.425Z,76.14
2022-12-18T00:14:30.259Z,76.27
2022-12-18T00:15:35.438Z,76.50
2022-12-18T00:16:38.438Z,76.18
2022-12-18T00:17:40.199Z,76.16
2022-12-18T00:18:42.741Z,76.44
2022-12-18T00:19:45.359Z,75.73
2022-12-18T00:20:47.136Z,76.37
2022-12-18T00:21:48.917Z,76.15
2022-12-18T00:22:50.686Z,75.80
2022-12-18T00:23:53.049Z,75.97
2022-12-18T00:24:54.865Z,75.87
2022-12-18T00:26:00.101Z,75.71
2022-12-18T00:27:01.881Z,75.69
2022-12-18T00:28:04.954Z,76.06
2022-12-18T00:29:09.000Z,76.15
2022-12-18T00:30:11.257Z,75.97
2022-12-18T00:31:15.291Z,76.34
2022-12-18T00:32:17.158Z,76.33
2022-12-18T00:33:19.238Z,76.77
2022-12-18T00:34:21.051Z,76.01
2022-12-18T00:35:22.887Z,76.41
2022-12-18T00:36:26.055Z,76.42
2022-12-18T00:37:27.960Z,76.43
2022-12-18T00:38:29.884Z,76.07
2022-12-18T00:39:31.733Z,75.60
2022-12-18T00:40:33.556Z,75.99
2022-12-18T00:41:53.977Z,75.20
2022-12-18T00:42:58.434Z,75.10
2022-12-18T00:44:00.213Z,75.95
2022-12-18T00:45:03.078Z,75.12
2022-12-18T00:46:06.882Z,75.65
2022-12-18T00:47:08.666Z,75.30
2022-12-18T00:48:11.216Z,75.44
2022-12-18T00:49:14.503Z,75.92
2022-12-18T00:50:16.364Z,75.75
2022-12-18T00:51:18.120Z,75.39
2022-12-18T00:52:19.897Z,76.14
2022-12-18T00:53:21.784Z,75.72
2022-12-18T00:54:24.452Z,75.41
2022-12-18T00:55:26.223Z,75.39
2022-12-18T00:56:28.041Z,75.42
2022-12-18T00:57:30.043Z,75.31
2022-12-18T00:58:32.331Z,75.56
2022-12-18T00:59:35.423Z,75.48
2022-12-18T01:00:37.251Z,75.14
2022-12-18T01:01:39.234Z,75.38
2022-12-18T01:02:41.640Z,75.16
2022-12-18T01:03:43.472Z,75.13
2022-12-18T01:04:46.438Z,75.62
2022-12-18T01:05:48.179Z,75.43
2022-12-18T01:06:50.001Z,75.81
2022-12-18T01:07:52.065Z,75.85
2022-12-18T01:08:53.851Z,75.97
2022-12-18T01:09:56.472Z,75.68
2022-12-18T01:10:58.233Z,75.49
2022-12-18T01:11:59.986Z,75.75
2022-12-18T01:13:01.774Z,76.48
2022-12-18T01:14:03.938Z,76.51
2022-12-18T01:15:07.444Z,76.41
2022-12-18T01:16:10.226Z,77.20
2022-12-18T01:17:12.072Z,77.19
2022-12-18T01:18:13.799Z,77.14
2022-12-18T01:19:15.572Z,77.22
2022-12-18T01:20:17.400Z,77.14
2022-12-18T01:21:20.953Z,77.30
2022-12-18T01:22:22.692Z,77.42
2022-12-18T01:23:24.822Z,77.79
2022-12-18T01:24:26.719Z,77.72
2022-12-18T01:25:28.558Z,78.16
2022-12-18T01:26:31.079Z,77.57
2022-12-18T01:27:33.991Z,77.51
2022-12-18T01:28:36.230Z,77.32
2022-12-18T01:29:37.993Z,77.54
2022-12-18T01:30:40.020Z,77.78
2022-12-18T01:31:41.950Z,77.60
2022-12-18T01:32:43.712Z,77.30
2022-12-18T01:33:45.699Z,77.42
2022-12-18T01:34:47.596Z,77.24
2022-12-18T01:35:50.521Z,77.39
2022-12-18T01:36:55.177Z,77.21
2022-12-18T01:37:56.930Z,77.08
2022-12-18T01:39:00.640Z,76.92
2022-12-18T01:40:02.444Z,76.59
2022-12-18T01:41:05.471Z,76.97
2022-12-18T01:42:12.179Z,76.79
2022-12-18T01:43:13.945Z,76.38
2022-12-18T01:44:34.285Z,77.04
2022-12-18T01:45:36.229Z,77.19
2022-12-18T01:46:38.012Z,76.58
2022-12-18T01:48:05.853Z,76.39
2022-12-18T01:49:07.676Z,76.48
2022-12-18T01:50:11.913Z,76.53
2022-12-18T01:51:13.881Z,76.91
2022-12-18T01:52:16.544Z,76.40
2022-12-18T01:53:20.265Z,77.05
2022-12-18T01:54:22.210Z,76.73
2022-12-18T01:55:25.345Z,76.99
2022-12-18T01:56:27.096Z,76.16
2022-12-18T01:57:29.438Z,76.79
2022-12-18T01:58:34.803Z,76.29
2022-12-18T01:59:37.928Z,76.70
2022-12-18T02:00:39.951Z,76.24
2022-12-18T02:01:42.652Z,76.05
2022-12-18T02:02:45.440Z,76.43
2022-12-18T02:03:47.450Z,76.21
2022-12-18T02:04:49.685Z,76.57
2022-12-18T02:06:10.091Z,75.88
2022-12-18T02:07:30.509Z,75.99
2022-12-18T02:08:39.880Z,76.59
2022-12-18T02:09:50.624Z,76.10
2022-12-18T02:11:02.628Z,75.96
2022-12-18T02:12:14.907Z,76.11
2022-12-18T02:13:19.420Z,76.58
2022-12-18T02:14:28.872Z,77.31
2022-12-18T02:15:37.379Z,77.88
2022-12-18T02:16:39.217Z,77.80
2022-12-18T02:17:40.953Z,77.79
2022-12-18T02:18:45.669Z,77.46
2022-12-18T02:19:50.227Z,77.23
2022-12-18T02:21:21.425Z,77.67
2022-12-18T02:22:52.443Z,77.98
2022-12-18T02:24:04.618Z,77.89
2022-12-18T02:25:20.557Z,78.34
2022-12-18T02:26:48.472Z,78.10
2022-12-18T02:27:51.179Z,78.79
2022-12-18T02:28:52.905Z,78.82
2022-12-18T02:29:58.796Z,78.58
2022-12-18T02:31:02.519Z,78.91
2022-12-18T02:32:07.579Z,78.65
2022-12-18T02:33:10.366Z,78.65
2022-12-18T02:34:13.034Z,79.53
2022-12-18T02:35:17.949Z,80.00
2022-12-18T02:36:21.358Z,79.38
2022-12-18T02:37:23.649Z,80.05
2022-12-18T02:38:26.594Z,79.03
2022-12-18T02:39:30.015Z,79.30
2022-12-18T02:40:33.238Z,79.55
2022-12-18T02:41:35.498Z,79.29
2022-12-18T02:42:37.297Z,79.52
2022-12-18T02:43:39.430Z,79.63
2022-12-18T02:44:51.446Z,79.35
2022-12-18T02:45:53.367Z,79.85
2022-12-18T02:46:55.700Z,79.38
2022-12-18T02:47:57.581Z,80.30
2022-12-18T02:49:06.136Z,79.83
2022-12-18T02:50:10.865Z,80.02
2022-12-18T02:51:19.801Z,79.69
2022-12-18T02:52:29.546Z,80.06
2022-12-18T02:53:34.633Z,80.06
2022-12-18T02:54:36.341Z,79.92
2022-12-18T02:55:43.855Z,80.00
2022-12-18T02:56:58.588Z,80.48
2022-12-18T02:58:12.510Z,80.34
2022-12-18T02:59:17.346Z,80.17
2022-12-18T03:00:21.496Z,79.66
2022-12-18T03:01:32.434Z,79.83
2022-12-18T03:02:49.081Z,80.21
2022-12-18T03:03:57.029Z,79.98
2022-12-18T03:05:15.038Z,80.01
2022-12-18T03:06:19.598Z,79.79
2022-12-18T03:07:24.614Z,80.19
2022-12-18T03:08:29.563Z,79.57
2022-12-18T03:09:40.977Z,79.92
2022-12-18T03:10:47.054Z,79.83
2022-12-18T03:12:12.272Z,80.25
2022-12-18T03:13:17.193Z,79.86
2022-12-18T03:14:21.916Z,80.06
2022-12-18T03:15:29.777Z,79.90
2022-12-18T03:16:32.393Z,80.12
2022-12-18T03:17:34.804Z,80.02
2022-12-18T03:18:39.935Z,80.94
2022-12-18T03:19:43.698Z,81.04
2022-12-18T03:20:47.404Z,81.22
2022-12-18T03:21:52.803Z,81.06
2022-12-18T03:22:58.773Z,81.32
2022-12-18T03:24:01.709Z,81.04
2022-12-18T03:25:06.606Z,81.63
2022-12-18T03:26:10.837Z,81.75
2022-12-18T03:27:14.373Z,81.54
2022-12-18T03:28:19.145Z,80.75
2022-12-18T03:29:26.676Z,80.68
2022-12-18T03:30:30.286Z,81.10
2022-12-18T03:31:33.300Z,81.22
2022-12-18T03:32:40.690Z,81.36
2022-12-18T03:33:45.479Z,80.79
2022-12-18T03:34:50.420Z,80.65
2022-12-18T03:35:52.195Z,80.68
2022-12-18T03:36:54.437Z,80.95
2022-12-18T03:37:56.386Z,80.50
2022-12-18T03:38:58.230Z,80.81
2022-12-18T03:40:00.134Z,80.52
2022-12-18T03:41:11.606Z,80.74
2022-12-18T03:42:16.276Z,79.97
2022-12-18T03:43:27.174Z,80.31
2022-12-18T03:44:47.275Z,80.29
2022-12-18T03:46:03.994Z,79.43
2022-12-18T03:47:11.704Z,79.29
2022-12-18T03:48:13.429Z,79.85
2022-12-18T03:49:24.003Z,80.02
2022-12-18T03:50:35.539Z,79.34
2022-12-18T03:51:52.577Z,79.64
2022-12-18T03:53:03.445Z,79.53
2022-12-18T03:54:06.642Z,79.49
2022-12-18T03:55:09.265Z,80.08
2022-12-18T03:56:11.487Z,79.39
2022-12-18T03:57:22.421Z,79.85
2022-12-18T03:58:26.859Z,79.87
2022-12-18T03:59:30.377Z,79.66
2022-12-18T04:00:32.767Z,79.75
2022-12-18T04:01:40.737Z,79.91
2022-12-18T04:02:46.203Z,79.30
2022-12-18T04:03:50.626Z,79.22
2022-12-18T04:04:58.768Z,79.50
2022-12-18T04:06:02.167Z,80.54
2022-12-18T04:07:04.705Z,79.67
2022-12-18T04:08:06.576Z,80.31
2022-12-18T04:09:08.499Z,80.67
2022-12-18T04:10:11.067Z,80.04
2022-12-18T04:11:12.967Z,80.12
2022-12-18T04:12:14.849Z,80.44
2022-12-18T04:13:29.363Z,80.05
2022-12-18T04:14:31.692Z,79.91
2022-12-18T04:15:35.874Z,79.40
2022-12-18T04:16:37.957Z,80.28
2022-12-18T04:17:40.143Z,80.14
2022-12-18T04:18:41.916Z,80.25
2022-12-18T04:19:43.783Z,80.03
2022-12-18T04:20:45.525Z,79.88
2022-12-18T04:21:47.270Z,80.15
2022-12-18T04:22:49.591Z,79.91
2022-12-18T04:23:51.380Z,79.87
2022-12-18T04:24:53.268Z,80.13
2022-12-18T04:25:55.415Z,79.91
2022-12-18T04:26:57.233Z,80.06
2022-12-18T04:27:58.954Z,80.68
2022-12-18T04:29:00.817Z,80.44
2022-12-18T04:30:03.056Z,80.37
2022-12-18T04:31:04.973Z,80.56
2022-12-18T04:32:06.874Z,80.94
2022-12-18T04:33:12.388Z,80.64
2022-12-18T04:34:14.271Z,80.15
2022-12-18T04:35:16.089Z,80.02
2022-12-18T04:36:17.880Z,79.67
2022-12-18T04:37:19.612Z,79.83
2022-12-18T04:38:21.402Z,80.15
2022-12-18T04:39:23.254Z,79.94
2022-12-18T04:40:25.080Z,79.65
2022-12-18T04:41:26.807Z,80.21
2022-12-18T04:42:28.636Z,80.04
2022-12-18T04:43:30.346Z,79.91
2022-12-18T04:44:32.171Z,80.37
2022-12-18T04:45:34.267Z,80.30
2022-12-18T04:46:36.162Z,80.00
2022-12-18T04:47:37.946Z,80.17
2022-12-18T04:48:39.827Z,80.37
2022-12-18T04:49:41.700Z,79.60
2022-12-18T04:50:43.486Z,79.79
2022-12-18T04:51:45.252Z,79.89
2022-12-18T04:52:46.933Z,79.93
2022-12-18T04:53:48.647Z,79.46
2022-12-18T04:54:51.709Z,79.12
2022-12-18T04:56:03.668Z,79.65
2022-12-18T04:57:05.399Z,78.36
2022-12-18T04:58:07.298Z,78.57
2022-12-18T04:59:09.145Z,79.22
2022-12-18T05:00:11.719Z,79.14
2022-12-18T05:01:14.628Z,79.22
2022-12-18T05:02:17.825Z,79.75
2022-12-18T05:03:19.677Z,79.75
2022-12-18T05:04:22.725Z,80.21
2022-12-18T05:05:24.598Z,79.95
2022-12-18T05:06:26.607Z,79.64
2022-12-18T05:07:28.337Z,79.56
2022-12-18T05:08:30.141Z,79.39
2022-12-18T05:09:32.752Z,79.59
2022-12-18T05:10:37.947Z,80.54
2022-12-18T05:11:40.371Z,80.58
2022-12-18T05:13:00.074Z,80.34
2022-12-18T05:14:03.368Z,79.98
2022-12-18T05:15:05.338Z,80.08
2022-12-18T05:16:08.786Z,80.53
2022-12-18T05:17:10.559Z,80.18
2022-12-18T05:18:12.494Z,80.06
2022-12-18T05:19:14.338Z,80.18
2022-12-18T05:20:16.322Z,79.82
2022-12-18T05:21:18.047Z,80.00
2022-12-18T05:22:25.880Z,80.22
2022-12-18T05:23:28.317Z,80.36
2022-12-18T05:24:30.019Z,80.25
2022-12-18T05:25:31.760Z,79.98
2022-12-18T05:26:33.545Z,80.37
2022-12-18T05:27:35.387Z,79.93
2022-12-18T05:28:37.553Z,79.67
2022-12-18T05:29:39.332Z,80.24
2022-12-18T05:30:41.181Z,79.85
2022-12-18T05:31:43.078Z,80.18
2022-12-18T05:32:45.303Z,79.98
2022-12-18T05:33:47.159Z,79.90
2022-12-18T05:34:48.892Z,79.88
2022-12-18T05:35:54.233Z,79.40
2022-12-18T05:36:55.986Z,79.91
2022-12-18T05:37:57.790Z,79.77
2022-12-18T05:39:01.522Z,79.72
2022-12-18T05:40:04.516Z,79.76
2022-12-18T05:41:06.735Z,79.83
2022-12-18T05:42:08.490Z,79.71
2022-12-18T05:43:10.581Z,80.01
2022-12-18T05:44:12.577Z,79.85
2022-12-18T05:45:14.436Z,80.07
2022-12-18T05:46:19.106Z,79.59
2022-12-18T05:47:21.357Z,80.23
2022-12-18T05:48:23.766Z,79.59
2022-12-18T05:49:25.755Z,79.59
2022-12-18T05:50:27.469Z,80.11
2022-12-18T05:51:29.363Z,80.32
2022-12-18T05:52:31.863Z,80.29
2022-12-18T05:53:33.780Z,80.38
2022-12-18T05:54:35.674Z,80.11
2022-12-18T05:55:38.094Z,79.90
2022-12-18T05:56:44.130Z,79.53
2022-12-18T05:57:48.836Z,79.84
2022-12-18T05:58:54.651Z,79.63
2022-12-18T05:59:56.523Z,79.88
2022-12-18T06:00:58.404Z,79.86
2022-12-18T06:02:00.342Z,79.89
2022-12-18T06:03:02.504Z,79.91
2022-12-18T06:04:04.480Z,79.89
2022-12-18T06:05:07.596Z,79.61
2022-12-18T06:06:16.300Z,79.80
2022-12-18T06:07:18.767Z,79.55
2022-12-18T06:08:20.766Z,79.67
2022-12-18T06:09:22.516Z,79.95
2022-12-18T06:10:24.795Z,79.42
2022-12-18T06:11:27.809Z,79.68
2022-12-18T06:12:29.691Z,79.68
2022-12-18T06:13:31.456Z,79.80
2022-12-18T06:14:33.206Z,79.46
2022-12-18T06:15:37.619Z,80.29
2022-12-18T06:16:39.403Z,80.03
2022-12-18T06:17:41.430Z,79.68
2022-12-18T06:18:43.222Z,79.72
2022-12-18T06:19:44.986Z,79.71
2022-12-18T06:20:46.838Z,79.99
2022-12-18T06:21:48.678Z,79.74
2022-12-18T06:22:50.644Z,79.75
2022-12-18T06:23:52.424Z,80.24
2022-12-18T06:24:54.707Z,80.24
2022-12-18T06:25:56.769Z,80.05
2022-12-18T06:26:58.603Z,79.81
2022-12-18T06:28:00.643Z,79.85
2022-12-18T06:29:02.379Z,79.96
2022-12-18T06:30:05.321Z,80.34
2022-12-18T06:31:07.729Z,79.74
2022-12-18T06:32:09.776Z,79.66
2022-12-18T06:33:11.611Z,79.65
2022-12-18T06:34:13.379Z,79.50
2022-12-18T06:35:15.201Z,79.46
2022-12-18T06:36:17.957Z,79.70
2022-12-18T06:37:19.766Z,79.28
2022-12-18T06:38:21.511Z,79.60
2022-12-18T06:39:23.282Z,79.33
2022-12-18T06:40:25.104Z,79.29
2022-12-18T06:41:27.863Z,79.56
2022-12-18T06:42:30.106Z,79.19
2022-12-18T06:43:32.258Z,79.06
2022-12-18T06:44:34.030Z,79.49
2022-12-18T06:45:35.917Z,79.54
2022-12-18T06:46:39.563Z,79.25
2022-12-18T06:47:41.409Z,79.46
2022-12-18T06:48:43.544Z,79.66
2022-12-18T06:49:45.404Z,79.30
2022-12-18T06:50:47.152Z,79.23
2022-12-18T06:51:49.978Z,79.54
2022-12-18T06:52:51.693Z,79.14
2022-12-18T06:53:53.541Z,79.03
2022-12-18T06:54:55.365Z,79.03
2022-12-18T06:56:10.249Z,79.54
2022-12-18T06:57:12.606Z,79.05
2022-12-18T06:58:14.388Z,79.19
2022-12-18T06:59:16.193Z,78.75
2022-12-18T07:00:18.089Z,78.74
2022-12-18T07:01:20.067Z,78.73
2022-12-18T07:02:22.112Z,79.05
2022-12-18T07:03:23.975Z,79.01
2022-12-18T07:04:29.300Z,78.88
2022-12-18T07:05:31.106Z,79.05
2022-12-18T07:06:32.946Z,79.05
2022-12-18T07:07:35.934Z,78.93
2022-12-18T07:08:37.781Z,79.22
2022-12-18T07:09:39.657Z,79.15
2022-12-18T07:10:46.834Z,79.40
2022-12-18T07:11:50.020Z,79.71
2022-12-18T07:12:51.836Z,79.48
2022-12-18T07:13:54.577Z,79.23
2022-12-18T07:14:56.465Z,79.19
2022-12-18T07:16:04.514Z,78.67
2022-12-18T07:17:06.570Z,79.00
2022-12-18T07:18:08.788Z,78.77
2022-12-18T07:19:10.786Z,79.03
2022-12-18T07:20:12.589Z,78.77
2022-12-18T07:21:16.065Z,78.42
2022-12-18T07:22:17.857Z,78.53
2022-12-18T07:23:19.657Z,78.44
2022-12-18T07:24:22.965Z,78.21
2022-12-18T07:25:24.750Z,78.92
2022-12-18T07:26:27.502Z,78.73
2022-12-18T07:27:29.424Z,78.49
2022-12-18T07:28:31.388Z,78.82
2022-12-18T07:29:33.241Z,79.11
2022-12-18T07:30:35.211Z,79.04
2022-12-18T07:31:36.954Z,78.94
2022-12-18T07:32:38.734Z,79.03
2022-12-18T07:33:40.955Z,78.61
2022-12-18T07:34:43.051Z,78.27
2022-12-18T07:35:44.814Z,78.81
2022-12-18T07:36:46.576Z,78.83
2022-12-18T07:37:48.417Z,78.99
2022-12-18T07:38:50.970Z,78.73
2022-12-18T07:39:52.759Z,79.25
2022-12-18T07:40:54.569Z,78.56
2022-12-18T07:42:14.885Z,78.74
2022-12-18T07:43:16.650Z,78.73
2022-12-18T07:44:18.515Z,78.94
2022-12-18T07:45:21.447Z,78.64
2022-12-18T07:46:23.628Z,78.45
2022-12-18T07:47:25.478Z,78.25
2022-12-18T07:48:27.577Z,78.37
2022-12-18T07:49:29.616Z,78.78
2022-12-18T07:50:31.387Z,78.92
2022-12-18T07:51:33.238Z,79.06
2022-12-18T07:52:34.967Z,79.00
2022-12-18T07:53:37.404Z,78.91
2022-12-18T07:54:40.130Z,78.68
2022-12-18T07:56:17.781Z,78.59
2022-12-18T07:57:21.229Z,78.41
2022-12-18T07:58:28.361Z,78.88
2022-12-18T07:59:30.320Z,78.15
2022-12-18T08:00:32.554Z,77.94
2022-12-18T08:01:35.081Z,78.12
2022-12-18T08:02:37.068Z,77.94
2022-12-18T08:03:41.885Z,78.50
2022-12-18T08:04:44.636Z,78.24
2022-12-18T08:05:46.538Z,78.37
2022-12-18T08:06:48.545Z,78.03
2022-12-18T08:07:50.504Z,78.39
2022-12-18T08:08:54.739Z,78.21
2022-12-18T08:09:56.636Z,77.93
2022-12-18T08:10:58.744Z,77.53
2022-12-18T08:12:00.634Z,77.86
2022-12-18T08:13:05.108Z,77.56
2022-12-18T08:14:08.989Z,77.65
2022-12-18T08:15:10.958Z,77.90
2022-12-18T08:16:12.796Z,77.93
2022-12-18T08:17:14.793Z,77.38
2022-12-18T08:18:16.596Z,77.43
2022-12-18T08:19:18.963Z,77.48
2022-12-18T08:20:20.735Z,77.80
2022-12-18T08:21:24.521Z,78.05
2022-12-18T08:22:26.375Z,77.98
2022-12-18T08:23:28.938Z,78.27
2022-12-18T08:24:30.821Z,78.31
2022-12-18T08:25:32.558Z,78.32
2022-12-18T08:26:34.985Z,78.13
2022-12-18T08:27:37.332Z,77.93
2022-12-18T08:28:39.553Z,77.92
2022-12-18T08:29:41.443Z,77.94
2022-12-18T08:30:43.676Z,78.53
2022-12-18T08:31:45.606Z,78.36
2022-12-18T08:32:47.443Z,78.15
2022-12-18T08:33:50.304Z,78.08
2022-12-18T08:34:52.150Z,78.25
2022-12-18T08:35:54.024Z,78.17
2022-12-18T08:36:55.894Z,77.90
2022-12-18T08:37:57.753Z,78.48
2022-12-18T08:38:59.655Z,78.23
2022-12-18T08:40:02.113Z,77.71
2022-12-18T08:41:05.322Z,78.23
2022-12-18T08:42:26.983Z,78.36
2022-12-18T08:43:47.636Z,77.91
2022-12-18T08:44:49.394Z,78.21
2022-12-18T08:45:52.212Z,77.97
2022-12-18T08:46:53.911Z,78.26
2022-12-18T08:47:55.932Z,78.09
2022-12-18T08:48:57.658Z,78.46
2022-12-18T08:49:59.633Z,77.95
2022-12-18T08:51:01.474Z,77.95
2022-12-18T08:52:04.123Z,77.65
2022-12-18T08:53:05.941Z,77.91
2022-12-18T08:54:08.002Z,77.98
2022-12-18T08:55:10.850Z,77.47
2022-12-18T08:56:13.440Z,76.87
2022-12-18T08:57:15.271Z,77.05
2022-12-18T08:58:17.138Z,77.14
2022-12-18T08:59:20.075Z,77.16
2022-12-18T09:00:22.709Z,77.29
2022-12-18T09:01:24.922Z,77.19
2022-12-18T09:02:27.095Z,76.66
2022-12-18T09:03:29.298Z,76.75
2022-12-18T09:04:31.231Z,77.08
2022-12-18T09:05:33.196Z,76.83
2022-12-18T09:06:34.977Z,76.35
2022-12-18T09:07:36.802Z,76.45
2022-12-18T09:08:39.356Z,75.75
2022-12-18T09:09:41.475Z,76.14
2022-12-18T09:10:44.610Z,75.66
2022-12-18T09:11:46.367Z,76.53
2022-12-18T09:12:48.174Z,76.43
2022-12-18T09:13:49.993Z,75.34
2022-12-18T09:14:51.844Z,75.79
2022-12-18T09:15:54.667Z,75.18
2022-12-18T09:16:56.508Z,75.31
2022-12-18T09:17:58.357Z,75.67
2022-12-18T09:19:01.025Z,74.99
2022-12-18T09:20:02.892Z,74.95
2022-12-18T09:21:12.097Z,74.49
2022-12-18T09:22:13.894Z,74.59
2022-12-18T09:23:15.776Z,74.98
2022-12-18T09:24:17.978Z,74.75
2022-12-18T09:25:19.926Z,74.82
2022-12-18T09:26:22.769Z,74.76
2022-12-18T09:27:24.538Z,74.24
2022-12-18T09:28:28.478Z,75.13
2022-12-18T09:29:30.335Z,75.02
2022-12-18T09:30:34.664Z,74.20
2022-12-18T09:31:37.951Z,74.29
2022-12-18T09:32:39.723Z,73.54
2022-12-18T09:33:41.976Z,73.68
2022-12-18T09:34:43.794Z,74.46
2022-12-18T09:35:46.754Z,74.40
2022-12-18T09:36:48.873Z,73.49
2022-12-18T09:37:50.621Z,74.00
2022-12-18T09:38:52.535Z,74.03
2022-12-18T09:39:54.381Z,73.80
2022-12-18T09:41:00.336Z,73.98
2022-12-18T09:42:02.107Z,74.04
2022-12-18T09:43:08.426Z,73.61
2022-12-18T09:44:15.859Z,72.83
2022-12-18T09:45:18.650Z,73.22
2022-12-18T09:46:26.643Z,73.13
2022-12-18T09:47:28.550Z,73.36
2022-12-18T09:48:33.841Z,73.39
2022-12-18T09:49:38.627Z,72.94
2022-12-18T09:50:41.262Z,73.21
2022-12-18T09:51:48.670Z,73.73
2022-12-18T09:52:53.826Z,72.83
2022-12-18T09:54:00.300Z,73.05
2022-12-18T09:55:05.367Z,72.94
2022-12-18T09:56:11.438Z,73.48
2022-12-18T09:57:18.942Z,72.75
2022-12-18T09:58:27.276Z,72.95
2022-12-18T09:59:33.465Z,72.17
2022-12-18T10:00:35.335Z,72.23
2022-12-18T10:01:43.906Z,72.38
2022-12-18T10:02:47.210Z,72.38
2022-12-18T10:03:49.547Z,72.17
2022-12-18T10:05:02.229Z,71.47
2022-12-18T10:06:12.278Z,70.97
2022-12-18T10:07:20.512Z,71.48
2022-12-18T10:08:28.260Z,71.22
2022-12-18T10:09:43.777Z,71.75
2022-12-18T10:10:45.452Z,70.96
2022-12-18T10:11:47.690Z,71.23
2022-12-18T10:12:52.315Z,71.62
2022-12-18T10:13:58.801Z,71.82
2022-12-18T10:15:08.713Z,72.17
2022-12-18T10:16:14.851Z,71.50
2022-12-18T10:17:19.512Z,71.36
2022-12-18T10:18:27.417Z,71.37
2022-12-18T10:19:50.500Z,71.06
2022-12-18T10:20:55.918Z,71.11
2022-12-18T10:22:09.694Z,71.09
2022-12-18T10:23:14.471Z,72.02
2022-12-18T10:24:23.836Z,71.38
2022-12-18T10:25:32.502Z,71.16
2022-12-18T10:26:34.315Z,70.81
2022-12-18T10:27:36.171Z,71.01
2022-12-18T10:28:40.777Z,70.98
2022-12-18T10:29:46.992Z,70.94
2022-12-18T10:30:48.877Z,71.29
2022-12-18T10:31:51.345Z,70.10
2022-12-18T10:32:53.199Z,70.54
2022-12-18T10:33:55.597Z,70.82
2022-12-18T10:35:00.856Z,70.04
2022-12-18T10:36:04.129Z,70.08
2022-12-18T10:37:12.480Z,70.18
2022-12-18T10:38:17.661Z,70.18
2022-12-18T10:39:24.065Z,70.62
2022-12-18T10:40:25.945Z,70.35
2022-12-18T10:41:29.381Z,70.43
2022-12-18T10:42:31.430Z,70.63
2022-12-18T10:43:37.077Z,70.48
2022-12-18T10:44:38.856Z,70.12
2022-12-18T10:45:41.144Z,70.30
2022-12-18T10:46:43.170Z,69.95
2022-12-18T10:47:46.433Z,70.50
2022-12-18T10:48:48.159Z,70.49
2022-12-18T10:49:51.974Z,70.22
2022-12-18T10:51:10.881Z,69.97
2022-12-18T10:52:26.118Z,70.03
2022-12-18T10:53:31.966Z,70.14
2022-12-18T10:54:35.091Z,69.49
2022-12-18T10:55:39.568Z,70.13
2022-12-18T10:56:41.684Z,69.70
2022-12-18T10:57:46.207Z,69.65
2022-12-18T10:58:57.515Z,69.73
2022-12-18T11:00:00.290Z,69.75
2022-12-18T11:01:07.443Z,69.67
2022-12-18T11:02:27.357Z,69.84
2022-12-18T11:03:40.112Z,68.84
2022-12-18T11:04:51.320Z,69.42
2022-12-18T11:06:02.482Z,69.30
2022-12-18T11:07:09.146Z,69.59
2022-12-18T11:08:22.278Z,69.65
2022-12-18T11:09:25.694Z,68.86
2022-12-18T11:10:47.777Z,69.02
2022-12-18T11:11:50.486Z,69.18
2022-12-18T11:12:53.278Z,69.17
2022-12-18T11:14:06.541Z,69.40
2022-12-18T11:15:16.496Z,70.00
2022-12-18T11:16:21.439Z,69.90
2022-12-18T11:17:29.523Z,70.00
2022-12-18T11:18:34.288Z,70.06
2022-12-18T11:19:37.172Z,70.04
2022-12-18T11:20:40.277Z,69.65
2022-12-18T11:21:42.900Z,69.82
2022-12-18T11:22:44.772Z,69.30
2022-12-18T11:23:51.923Z,69.66
2022-12-18T11:25:29.567Z,69.90
2022-12-18T11:26:18.785Z,69.68
2022-12-18T11:27:20.618Z,70.21
2022-12-18T11:28:42.515Z,69.78
2022-12-18T11:29:46.722Z,69.87
2022-12-18T11:30:48.816Z,69.81
2022-12-18T11:31:50.636Z,69.35
2022-12-18T11:32:55.597Z,69.96
2022-12-18T11:34:27.454Z,69.82
2022-12-18T11:35:32.190Z,69.33
2022-12-18T11:36:41.006Z,69.37
2022-12-18T11:37:44.913Z,68.99
2022-12-18T11:38:47.642Z,68.48
2022-12-18T11:40:13.988Z,67.98
2022-12-18T11:42:08.449Z,68.11
2022-12-18T11:43:28.770Z,68.29
2022-12-18T11:44:39.512Z,68.25
2022-12-18T11:45:47.225Z,67.46
2022-12-18T11:46:54.272Z,67.70
2022-12-18T11:48:08.558Z,68.02
2022-12-18T11:49:22.771Z,68.90
2022-12-18T11:50:26.623Z,68.75
2022-12-18T11:51:33.447Z,67.97
2022-12-18T11:52:39.469Z,67.77
2022-12-18T11:53:41.357Z,68.02
2022-12-18T11:54:43.153Z,67.60
2022-12-18T11:55:50.658Z,67.76
2022-12-18T11:56:55.082Z,67.88
2022-12-18T11:58:05.882Z,68.47
2022-12-18T11:59:18.186Z,67.69
2022-12-18T12:00:20.903Z,67.76
2022-12-18T12:01:28.636Z,67.91
2022-12-18T12:02:49.229Z,68.31
2022-12-18T12:04:00.313Z,67.65
2022-12-18T12:05:20.796Z,67.49
2022-12-18T12:06:37.797Z,67.99
2022-12-18T12:07:44.886Z,67.48
2022-12-18T12:08:46.611Z,67.82
2022-12-18T12:09:49.276Z,67.26
2022-12-18T12:11:06.900Z,67.94
2022-12-18T12:12:11.986Z,68.06
2022-12-18T12:13:16.765Z,67.87
2022-12-18T12:14:26.745Z,67.61
2022-12-18T12:15:31.364Z,67.40
2022-12-18T12:16:47.574Z,66.85
2022-12-18T12:17:49.334Z,66.98
2022-12-18T12:19:09.353Z,66.55
2022-12-18T12:20:29.760Z,67.23
2022-12-18T12:21:33.382Z,66.08
2022-12-18T12:23:01.216Z,65.86
2022-12-18T12:24:14.334Z,66.87
2022-12-18T12:25:28.277Z,65.97
2022-12-18T12:26:53.070Z,65.11
2022-12-18T12:28:13.738Z,65.28
2022-12-18T12:29:30.400Z,64.98
2022-12-18T12:30:37.152Z,62.84
2022-12-18T12:32:05.060Z,63.03
2022-12-18T12:33:27.145Z,63.53
2022-12-18T12:34:35.797Z,62.15
2022-12-18T12:35:57.367Z,62.98
2022-12-18T12:37:08.288Z,61.38
2022-12-18T12:38:33.301Z,61.96
2022-12-18T12:39:39.394Z,62.74
2022-12-18T12:40:53.975Z,62.21
2022-12-18T12:42:16.321Z,61.20
2022-12-18T12:43:24.016Z,61.15
2022-12-18T12:44:28.833Z,61.02
2022-12-18T12:45:45.956Z,61.70
2022-12-18T12:46:50.563Z,60.96
2022-12-18T12:47:53.952Z,60.38
2022-12-18T12:49:07.369Z,62.13
2022-12-18T12:50:15.574Z,61.75
2022-12-18T12:51:17.255Z,61.29
2022-12-18T12:52:24.199Z,61.34
2022-12-18T12:53:30.121Z,60.30
2022-12-18T12:54:33.180Z,59.84
2022-12-18T12:55:35.566Z,60.00
2022-12-18T12:56:44.407Z,60.59
2022-12-18T12:57:56.174Z,60.83
2022-12-18T12:59:03.684Z,62.33
2022-12-18T13:00:14.435Z,60.33
2022-12-18T13:01:23.406Z,60.19
2022-12-18T13:02:32.189Z,61.08
2022-12-18T13:03:53.100Z,61.47
2022-12-18T13:05:00.785Z,61.02
2022-12-18T13:06:06.654Z,60.01
2022-12-18T13:07:32.027Z,58.90
2022-12-18T13:08:52.275Z,57.62
2022-12-18T13:10:15.492Z,58.81
2022-12-18T13:11:48.809Z,58.35
2022-12-18T13:13:00.992Z,57.68
2022-12-18T13:14:03.673Z,57.85
2022-12-18T13:15:28.871Z,57.86
2022-12-18T13:16:31.915Z,59.08
2022-12-18T13:17:33.784Z,59.53
2022-12-18T13:18:37.468Z,59.56
2022-12-18T13:19:39.370Z,59.62
2022-12-18T13:20:41.339Z,58.52
2022-12-18T13:21:43.982Z,58.90
2022-12-18T13:22:48.939Z,57.80
2022-12-18T13:23:50.865Z,56.61
2022-12-18T13:24:52.703Z,57.30
2022-12-18T13:25:56.364Z,57.68
2022-12-18T13:26:58.424Z,57.28
2022-12-18T13:28:09.732Z,58.04
2022-12-18T13:29:11.560Z,58.70
2022-12-18T13:30:31.928Z,58.84
2022-12-18T13:31:42.561Z,59.19
2022-12-18T13:32:44.558Z,57.85
2022-12-18T13:34:23.963Z,58.90
2022-12-18T13:35:18.583Z,59.05
2022-12-18T13:36:24.341Z,60.29
2022-12-18T13:37:42.689Z,60.31
2022-12-18T13:38:45.984Z,61.17
2022-12-18T13:39:49.388Z,61.12
2022-12-18T13:40:51.199Z,61.00
2022-12-18T13:41:54.810Z,61.59
2022-12-18T13:43:14.987Z,61.66
2022-12-18T13:44:28.864Z,62.20
2022-12-18T13:45:39.555Z,62.62
2022-12-18T13:46:45.749Z,62.34
2022-12-18T13:47:48.889Z,62.86
2022-12-18T13:49:09.819Z,62.99
2022-12-18T13:50:28.563Z,63.70
2022-12-18T13:51:36.680Z,63.80
2022-12-18T13:52:41.726Z,63.35
2022-12-18T13:53:46.043Z,64.72
2022-12-18T13:54:52.895Z,64.20
2022-12-18T13:55:56.511Z,64.74
2022-12-18T13:56:58.539Z,65.22
2022-12-18T13:58:07.052Z,65.93
2022-12-18T13:59:17.279Z,66.73
2022-12-18T14:00:23.654Z,67.64